sensor_id;sensor_type;location;lat;lon;timestamp;pressure;altitude;pressure_sealevel;temperature;humidity
55044;BME280;54902;50.420;18.854;2022-10-17T00:00:09;102359.84;;;15.52;70.90
55044;BME280;54902;50.420;18.854;2022-10-17T00:00:40;102370.86;;;15.52;70.89
55044;BME280;54902;50.420;18.854;2022-10-17T00:01:12;102361.57;;;15.53;70.89
55044;BME280;54902;50.420;18.854;2022-10-17T00:01:43;102362.59;;;15.52;70.90
55044;BME280;54902;50.420;18.854;2022-10-17T00:02:14;102365.35;;;15.52;70.91
55044;BME280;54902;50.420;18.854;2022-10-17T00:02:45;102364.45;;;15.51;70.91
55044;BME280;54902;50.420;18.854;2022-10-17T00:03:16;102361.69;;;15.51;70.93
55044;BME280;54902;50.420;18.854;2022-10-17T00:03:47;102363.59;;;15.51;70.92
55044;BME280;54902;50.420;18.854;2022-10-17T00:04:18;102367.20;;;15.51;70.93
55044;BME280;54902;50.420;18.854;2022-10-17T00:04:49;102363.59;;;15.51;70.94
55044;BME280;54902;50.420;18.854;2022-10-17T00:05:20;102364.45;;;15.51;70.96
55044;BME280;54902;50.420;18.854;2022-10-17T00:05:51;102368.10;;;15.52;70.95
55044;BME280;54902;50.420;18.854;2022-10-17T00:06:22;102361.82;;;15.50;70.95
55044;BME280;54902;50.420;18.854;2022-10-17T00:06:53;102368.20;;;15.50;70.95
55044;BME280;54902;50.420;18.854;2022-10-17T00:07:24;102367.34;;;15.50;70.94
55044;BME280;54902;50.420;18.854;2022-10-17T00:07:55;102360.06;;;15.49;70.97
55044;BME280;54902;50.420;18.854;2022-10-17T00:08:26;102360.95;;;15.49;70.98
55044;BME280;54902;50.420;18.854;2022-10-17T00:08:57;102357.30;;;15.49;70.97
55044;BME280;54902;50.420;18.854;2022-10-17T00:09:28;102360.06;;;15.49;70.97
55044;BME280;54902;50.420;18.854;2022-10-17T00:09:59;102363.80;;;15.48;70.98
55044;BME280;54902;50.420;18.854;2022-10-17T00:10:29;102362.81;;;15.49;70.98
55044;BME280;54902;50.420;18.854;2022-10-17T00:11:03;102366.56;;;15.48;70.98
55044;BME280;54902;50.420;18.854;2022-10-17T00:11:35;102369.31;;;15.48;70.98
55044;BME280;54902;50.420;18.854;2022-10-17T00:12:06;102369.31;;;15.48;70.97
55044;BME280;54902;50.420;18.854;2022-10-17T00:12:37;102366.56;;;15.48;70.99
55044;BME280;54902;50.420;18.854;2022-10-17T00:13:08;102363.94;;;15.46;70.99
55044;BME280;54902;50.420;18.854;2022-10-17T00:13:39;102362.93;;;15.47;71.00
55044;BME280;54902;50.420;18.854;2022-10-17T00:14:10;102363.94;;;15.46;71.03
55044;BME280;54902;50.420;18.854;2022-10-17T00:14:41;102365.70;;;15.47;71.00
55044;BME280;54902;50.420;18.854;2022-10-17T00:15:17;102362.07;;;15.47;71.01
55044;BME280;54902;50.420;18.854;2022-10-17T00:15:48;102361.17;;;15.46;71.00
55044;BME280;54902;50.420;18.854;2022-10-17T00:16:24;102365.82;;;15.46;71.02
55044;BME280;54902;50.420;18.854;2022-10-17T00:16:56;102370.47;;;15.45;71.03
55044;BME280;54902;50.420;18.854;2022-10-17T00:17:27;102372.20;;;15.46;71.02
55044;BME280;54902;50.420;18.854;2022-10-17T00:17:58;102373.22;;;15.45;71.03
55044;BME280;54902;50.420;18.854;2022-10-17T00:18:29;102371.33;;;15.46;71.00
55044;BME280;54902;50.420;18.854;2022-10-17T00:19:00;102355.52;;;15.37;70.99
55044;BME280;54902;50.420;18.854;2022-10-17T00:19:31;102373.22;;;15.45;71.00
55044;BME280;54902;50.420;18.854;2022-10-17T00:20:02;102373.31;;;15.44;71.04
55044;BME280;54902;50.420;18.854;2022-10-17T00:20:36;102379.71;;;15.44;71.03
55044;BME280;54902;50.420;18.854;2022-10-17T00:21:49;102378.81;;;15.44;71.04
55044;BME280;54902;50.420;18.854;2022-10-17T00:22:20;102377.95;;;15.43;71.05
55044;BME280;54902;50.420;18.854;2022-10-17T00:22:51;102377.95;;;15.43;71.05
55044;BME280;54902;50.420;18.854;2022-10-17T00:23:22;102383.47;;;15.43;71.03
55044;BME280;54902;50.420;18.854;2022-10-17T00:23:53;102377.95;;;15.43;71.05
55044;BME280;54902;50.420;18.854;2022-10-17T00:24:25;102382.60;;;15.43;71.04
55044;BME280;54902;50.420;18.854;2022-10-17T00:24:55;102381.70;;;15.42;71.04
55044;BME280;54902;50.420;18.854;2022-10-17T00:25:26;102388.11;;;15.43;71.04
55044;BME280;54902;50.420;18.854;2022-10-17T00:26:02;102382.60;;;15.43;71.04
55044;BME280;54902;50.420;18.854;2022-10-17T00:26:34;102378.09;;;15.42;71.02
55044;BME280;54902;50.420;18.854;2022-10-17T00:27:04;102381.70;;;15.42;71.02
55044;BME280;54902;50.420;18.854;2022-10-17T00:27:40;102375.32;;;15.42;71.04
55044;BME280;54902;50.420;18.854;2022-10-17T00:28:12;102379.06;;;15.41;71.02
55044;BME280;54902;50.420;18.854;2022-10-17T00:28:47;102390.09;;;15.41;71.03
55044;BME280;54902;50.420;18.854;2022-10-17T00:29:18;102382.80;;;15.40;71.04
55044;BME280;54902;50.420;18.854;2022-10-17T00:29:50;102367.90;;;15.31;71.06
55044;BME280;54902;50.420;18.854;2022-10-17T00:30:21;102383.72;;;15.40;71.07
55044;BME280;54902;50.420;18.854;2022-10-17T00:30:57;102383.72;;;15.40;71.07
55044;BME280;54902;50.420;18.854;2022-10-17T00:31:28;102389.23;;;15.40;71.07
55044;BME280;54902;50.420;18.854;2022-10-17T00:31:59;102389.34;;;15.39;71.08
55044;BME280;54902;50.420;18.854;2022-10-17T00:32:30;102383.96;;;15.37;71.08
55044;BME280;54902;50.420;18.854;2022-10-17T00:33:01;102390.22;;;15.39;71.06
55044;BME280;54902;50.420;18.854;2022-10-17T00:33:33;102379.31;;;15.38;71.08
55044;BME280;54902;50.420;18.854;2022-10-17T00:34:04;102378.45;;;15.37;71.07
55044;BME280;54902;50.420;18.854;2022-10-17T00:34:35;102380.31;;;15.37;71.08
55044;BME280;54902;50.420;18.854;2022-10-17T00:35:07;102383.07;;;15.37;71.08
55044;BME280;54902;50.420;18.854;2022-10-17T00:35:38;102383.07;;;15.37;71.09
55044;BME280;54902;50.420;18.854;2022-10-17T00:36:17;102374.92;;;15.35;71.04
55044;BME280;54902;50.420;18.854;2022-10-17T00:36:49;102384.05;;;15.36;71.08
55044;BME280;54902;50.420;18.854;2022-10-17T00:37:20;102382.33;;;15.35;71.09
55044;BME280;54902;50.420;18.854;2022-10-17T00:37:51;102380.44;;;15.35;71.09
55044;BME280;54902;50.420;18.854;2022-10-17T00:38:21;102373.16;;;15.34;71.11
55044;BME280;54902;50.420;18.854;2022-10-17T00:38:55;102372.29;;;15.34;71.11
55044;BME280;54902;50.420;18.854;2022-10-17T00:39:26;102388.82;;;15.34;71.09
55044;BME280;54902;50.420;18.854;2022-10-17T00:39:57;102371.39;;;15.33;71.11
55044;BME280;54902;50.420;18.854;2022-10-17T00:40:28;102374.27;;;15.32;71.12
55044;BME280;54902;50.420;18.854;2022-10-17T00:41:00;102384.30;;;15.33;71.12
55044;BME280;54902;50.420;18.854;2022-10-17T00:41:32;102381.67;;;15.31;71.11
55044;BME280;54902;50.420;18.854;2022-10-17T00:42:03;102375.18;;;15.32;71.11
55044;BME280;54902;50.420;18.854;2022-10-17T00:42:34;102381.80;;;15.30;71.13
55044;BME280;54902;50.420;18.854;2022-10-17T00:43:14;102380.81;;;15.31;71.13
55044;BME280;54902;50.420;18.854;2022-10-17T00:45:52;102380.04;;;15.29;71.15
55044;BME280;54902;50.420;18.854;2022-10-17T00:46:26;102385.53;;;15.29;71.13
55044;BME280;54902;50.420;18.854;2022-10-17T00:47:01;102384.67;;;15.28;71.15
55044;BME280;54902;50.420;18.854;2022-10-17T00:47:35;102383.77;;;15.28;71.15
55044;BME280;54902;50.420;18.854;2022-10-17T00:48:08;102383.77;;;15.28;71.16
55044;BME280;54902;50.420;18.854;2022-10-17T00:48:41;102386.54;;;15.28;71.18
55044;BME280;54902;50.420;18.854;2022-10-17T00:49:13;102383.91;;;15.26;71.18
55044;BME280;54902;50.420;18.854;2022-10-17T00:49:44;102389.27;;;15.28;71.18
55044;BME280;54902;50.420;18.854;2022-10-17T00:50:15;102387.55;;;15.27;71.18
55044;BME280;54902;50.420;18.854;2022-10-17T00:50:48;102378.52;;;15.25;71.20
55044;BME280;54902;50.420;18.854;2022-10-17T00:51:24;102382.05;;;15.27;71.18
55044;BME280;54902;50.420;18.854;2022-10-17T00:52:02;102383.03;;;15.26;71.19
55044;BME280;54902;50.420;18.854;2022-10-17T00:52:34;102382.27;;;15.24;71.19
55044;BME280;54902;50.420;18.854;2022-10-17T00:53:07;102381.27;;;15.25;71.20
55044;BME280;54902;50.420;18.854;2022-10-17T00:53:39;102380.27;;;15.26;71.20
55044;BME280;54902;50.420;18.854;2022-10-17T00:54:11;102386.78;;;15.25;71.21
55044;BME280;54902;50.420;18.854;2022-10-17T00:54:47;102381.27;;;15.25;71.21
55044;BME280;54902;50.420;18.854;2022-10-17T00:55:26;102385.01;;;15.24;71.22
55044;BME280;54902;50.420;18.854;2022-10-17T00:56:00;102386.91;;;15.23;71.22
55044;BME280;54902;50.420;18.854;2022-10-17T00:56:31;102381.39;;;15.23;71.21
55044;BME280;54902;50.420;18.854;2022-10-17T00:57:04;102385.01;;;15.24;71.23
55044;BME280;54902;50.420;18.854;2022-10-17T00:57:36;102389.66;;;15.23;71.24
55044;BME280;54902;50.420;18.854;2022-10-17T00:58:08;102379.63;;;15.22;71.24
55044;BME280;54902;50.420;18.854;2022-10-17T00:58:39;102380.54;;;15.23;71.21
55044;BME280;54902;50.420;18.854;2022-10-17T00:59:11;102379.63;;;15.22;71.24
55044;BME280;54902;50.420;18.854;2022-10-17T00:59:48;102381.52;;;15.22;71.23
55044;BME280;54902;50.420;18.854;2022-10-17T01:00:21;102388.02;;;15.21;71.24
55044;BME280;54902;50.420;18.854;2022-10-17T01:00:52;102378.76;;;15.22;71.25
55044;BME280;54902;50.420;18.854;2022-10-17T01:01:23;102378.76;;;15.22;71.22
55044;BME280;54902;50.420;18.854;2022-10-17T01:01:59;102388.02;;;15.21;71.22
55044;BME280;54902;50.420;18.854;2022-10-17T01:02:32;102384.39;;;15.20;71.24
55044;BME280;54902;50.420;18.854;2022-10-17T01:03:03;102383.38;;;15.21;71.23
55044;BME280;54902;50.420;18.854;2022-10-17T01:03:34;102380.74;;;15.20;71.24
55044;BME280;54902;50.420;18.854;2022-10-17T01:04:05;102380.74;;;15.20;71.26
55044;BME280;54902;50.420;18.854;2022-10-17T01:04:39;102380.74;;;15.20;71.29
55044;BME280;54902;50.420;18.854;2022-10-17T01:05:11;102384.39;;;15.20;71.28
55044;BME280;54902;50.420;18.854;2022-10-17T01:05:42;102380.74;;;15.20;71.28
55044;BME280;54902;50.420;18.854;2022-10-17T01:06:13;102378.94;;;15.19;71.27
55044;BME280;54902;50.420;18.854;2022-10-17T01:06:44;102386.25;;;15.20;71.29
55044;BME280;54902;50.420;18.854;2022-10-17T01:07:16;102386.25;;;15.20;71.29
55044;BME280;54902;50.420;18.854;2022-10-17T01:07:49;102381.70;;;15.19;71.30
55044;BME280;54902;50.420;18.854;2022-10-17T01:08:22;102381.70;;;15.19;71.29
55044;BME280;54902;50.420;18.854;2022-10-17T01:08:53;102378.94;;;15.19;71.30
55044;BME280;54902;50.420;18.854;2022-10-17T01:09:25;102378.09;;;15.18;71.29
55044;BME280;54902;50.420;18.854;2022-10-17T01:09:57;102382.72;;;15.18;71.27
55044;BME280;54902;50.420;18.854;2022-10-17T01:10:44;102388.23;;;15.18;71.29
55044;BME280;54902;50.420;18.854;2022-10-17T01:11:23;102383.72;;;15.17;71.32
55044;BME280;54902;50.420;18.854;2022-10-17T01:12:53;102377.34;;;15.16;71.30
55044;BME280;54902;50.420;18.854;2022-10-17T01:14:23;102375.57;;;15.15;71.33
55044;BME280;54902;50.420;18.854;2022-10-17T01:15:42;102385.68;;;15.15;71.31
55044;BME280;54902;50.420;18.854;2022-10-17T01:16:27;102382.07;;;15.14;71.33
55044;BME280;54902;50.420;18.854;2022-10-17T01:17:49;102386.70;;;15.14;71.35
55044;BME280;54902;50.420;18.854;2022-10-17T01:18:29;102389.46;;;15.14;71.36
55044;BME280;54902;50.420;18.854;2022-10-17T01:22:39;102388.69;;;15.12;71.38
55044;BME280;54902;50.420;18.854;2022-10-17T01:25:37;102388.69;;;15.12;71.36
55044;BME280;54902;50.420;18.854;2022-10-17T01:26:23;102391.56;;;15.11;71.36
55044;BME280;54902;50.420;18.854;2022-10-17T01:27:00;102395.19;;;15.11;71.36
55044;BME280;54902;50.420;18.854;2022-10-17T01:31:13;102390.70;;;15.10;71.36
55044;BME280;54902;50.420;18.854;2022-10-17T01:32:36;102399.95;;;15.09;71.35
55044;BME280;54902;50.420;18.854;2022-10-17T01:33:20;102399.95;;;15.09;71.35
55044;BME280;54902;50.420;18.854;2022-10-17T01:33:59;102399.04;;;15.09;71.36
55044;BME280;54902;50.420;18.854;2022-10-17T01:34:43;102397.20;;;15.09;71.34
55044;BME280;54902;50.420;18.854;2022-10-17T01:36:07;102391.80;;;15.08;71.37
55044;BME280;54902;50.420;18.854;2022-10-17T01:38:09;102401.06;;;15.07;71.36
55044;BME280;54902;50.420;18.854;2022-10-17T01:38:56;102406.55;;;15.07;71.37
55044;BME280;54902;50.420;18.854;2022-10-17T01:39:39;102395.55;;;15.07;71.36
55044;BME280;54902;50.420;18.854;2022-10-17T01:40:14;102397.45;;;15.06;71.37
55044;BME280;54902;50.420;18.854;2022-10-17T01:43:50;102394.89;;;15.03;71.41
55044;BME280;54902;50.420;18.854;2022-10-17T01:44:35;102388.40;;;15.04;71.40
55044;BME280;54902;50.420;18.854;2022-10-17T01:45:15;102393.91;;;15.04;71.39
55044;BME280;54902;50.420;18.854;2022-10-17T01:46:39;102394.89;;;15.03;71.40
55044;BME280;54902;50.420;18.854;2022-10-17T01:47:16;102392.13;;;15.03;71.38
55044;BME280;54902;50.420;18.854;2022-10-17T01:47:51;102394.03;;;15.03;71.38
55044;BME280;54902;50.420;18.854;2022-10-17T01:48:28;102394.89;;;15.03;71.38
55044;BME280;54902;50.420;18.854;2022-10-17T01:49:04;102385.89;;;15.01;71.37
55044;BME280;54902;50.420;18.854;2022-10-17T01:49:38;102390.41;;;15.02;71.37
55044;BME280;54902;50.420;18.854;2022-10-17T01:50:15;102382.15;;;15.02;71.38
55044;BME280;54902;50.420;18.854;2022-10-17T01:50:56;102386.76;;;15.02;71.39
55044;BME280;54902;50.420;18.854;2022-10-17T01:51:44;102384.13;;;15.00;71.38
55044;BME280;54902;50.420;18.854;2022-10-17T01:52:22;102391.39;;;15.01;71.36
55044;BME280;54902;50.420;18.854;2022-10-17T01:53:01;102383.14;;;15.01;71.36
55044;BME280;54902;50.420;18.854;2022-10-17T01:53:38;102388.64;;;15.01;71.38
55044;BME280;54902;50.420;18.854;2022-10-17T01:54:20;102385.89;;;15.01;71.39
55044;BME280;54902;50.420;18.854;2022-10-17T01:55:38;102397.89;;;15.00;71.39
55044;BME280;54902;50.420;18.854;2022-10-17T01:56:13;102386.88;;;15.00;71.40
55044;BME280;54902;50.420;18.854;2022-10-17T01:56:47;102389.63;;;15.00;71.38
55044;BME280;54902;50.420;18.854;2022-10-17T01:58:15;102393.38;;;14.99;71.40
55044;BME280;54902;50.420;18.854;2022-10-17T01:58:49;102386.13;;;14.98;71.38
55044;BME280;54902;50.420;18.854;2022-10-17T01:59:25;102387.01;;;14.99;71.41
55044;BME280;54902;50.420;18.854;2022-10-17T01:59:59;102387.87;;;14.99;71.39
55044;BME280;54902;50.420;18.854;2022-10-17T02:00:34;102387.87;;;14.99;71.40
55044;BME280;54902;50.420;18.854;2022-10-17T02:01:10;102384.25;;;14.99;71.41
55044;BME280;54902;50.420;18.854;2022-10-17T02:01:43;102384.38;;;14.97;71.40
55044;BME280;54902;50.420;18.854;2022-10-17T02:02:16;102387.12;;;14.97;71.41
55044;BME280;54902;50.420;18.854;2022-10-17T02:02:52;102387.12;;;14.97;71.41
55044;BME280;54902;50.420;18.854;2022-10-17T02:03:26;102383.38;;;14.98;71.44
55044;BME280;54902;50.420;18.854;2022-10-17T02:04:00;102387.24;;;14.96;71.40
55044;BME280;54902;50.420;18.854;2022-10-17T02:04:33;102381.62;;;14.97;71.39
55044;BME280;54902;50.420;18.854;2022-10-17T02:05:05;102384.38;;;14.97;71.41
55044;BME280;54902;50.420;18.854;2022-10-17T02:05:40;102377.10;;;14.96;71.40
55044;BME280;54902;50.420;18.854;2022-10-17T02:06:12;102376.23;;;14.96;71.40
55044;BME280;54902;50.420;18.854;2022-10-17T02:06:43;102371.59;;;14.96;71.39
55044;BME280;54902;50.420;18.854;2022-10-17T02:07:14;102363.34;;;14.96;71.39
55044;BME280;54902;50.420;18.854;2022-10-17T02:07:45;102377.10;;;14.96;71.39
55044;BME280;54902;50.420;18.854;2022-10-17T02:08:26;102371.59;;;14.96;71.40
55044;BME280;54902;50.420;18.854;2022-10-17T02:08:57;102379.84;;;14.96;71.42
55044;BME280;54902;50.420;18.854;2022-10-17T02:09:28;102377.10;;;14.96;71.44
55044;BME280;54902;50.420;18.854;2022-10-17T02:09:59;102378.98;;;14.96;71.41
55044;BME280;54902;50.420;18.854;2022-10-17T02:10:37;102377.10;;;14.96;71.42
55044;BME280;54902;50.420;18.854;2022-10-17T02:11:18;102377.97;;;14.97;71.42
55044;BME280;54902;50.420;18.854;2022-10-17T02:14:08;102379.97;;;14.95;71.43
55044;BME280;54902;50.420;18.854;2022-10-17T02:14:49;102382.60;;;14.96;71.44
55044;BME280;54902;50.420;18.854;2022-10-17T02:16:57;102374.34;;;14.96;71.43
55044;BME280;54902;50.420;18.854;2022-10-17T02:20:30;102376.23;;;14.96;71.44
55044;BME280;54902;50.420;18.854;2022-10-17T02:21:14;102368.84;;;14.96;71.46
55044;BME280;54902;50.420;18.854;2022-10-17T02:24:47;102378.09;;;14.95;71.45
55044;BME280;54902;50.420;18.854;2022-10-17T02:26:14;102386.34;;;14.95;71.45
55044;BME280;54902;50.420;18.854;2022-10-17T02:26:55;102384.48;;;14.96;71.47
55044;BME280;54902;50.420;18.854;2022-10-17T02:28:20;102389.10;;;14.95;71.48
55044;BME280;54902;50.420;18.854;2022-10-17T02:29:47;102388.23;;;14.95;71.49
55044;BME280;54902;50.420;18.854;2022-10-17T02:30:35;102389.10;;;14.95;71.50
55044;BME280;54902;50.420;18.854;2022-10-17T02:31:58;102384.59;;;14.94;71.54
55044;BME280;54902;50.420;18.854;2022-10-17T02:32:39;102380.84;;;14.95;71.48
55044;BME280;54902;50.420;18.854;2022-10-17T02:33:16;102379.08;;;14.94;71.47
55044;BME280;54902;50.420;18.854;2022-10-17T02:33:55;102384.59;;;14.94;71.47
55044;BME280;54902;50.420;18.854;2022-10-17T02:34:31;102379.08;;;14.94;71.47
55044;BME280;54902;50.420;18.854;2022-10-17T02:35:07;102385.48;;;14.95;71.48
55044;BME280;54902;50.420;18.854;2022-10-17T02:35:44;102387.33;;;14.94;71.49
55044;BME280;54902;50.420;18.854;2022-10-17T02:36:21;102386.34;;;14.95;71.50
55044;BME280;54902;50.420;18.854;2022-10-17T02:36:58;102388.23;;;14.95;71.50
55044;BME280;54902;50.420;18.854;2022-10-17T02:37:30;102384.59;;;14.94;71.49
55044;BME280;54902;50.420;18.854;2022-10-17T02:38:04;102390.99;;;14.95;71.49
55044;BME280;54902;50.420;18.854;2022-10-17T02:38:37;102381.82;;;14.94;71.48
55044;BME280;54902;50.420;18.854;2022-10-17T02:39:10;102395.59;;;14.94;71.51
55044;BME280;54902;50.420;18.854;2022-10-17T02:39:43;102386.46;;;14.94;71.48
55044;BME280;54902;50.420;18.854;2022-10-17T02:40:16;102384.59;;;14.94;71.49
55044;BME280;54902;50.420;18.854;2022-10-17T02:40:50;102388.36;;;14.93;71.49
55044;BME280;54902;50.420;18.854;2022-10-17T02:41:23;102385.60;;;14.93;71.49
55044;BME280;54902;50.420;18.854;2022-10-17T02:41:56;102391.98;;;14.94;71.49
55044;BME280;54902;50.420;18.854;2022-10-17T02:42:29;102386.46;;;14.94;71.49
55044;BME280;54902;50.420;18.854;2022-10-17T02:43:01;102397.48;;;14.94;71.49
55044;BME280;54902;50.420;18.854;2022-10-17T02:43:34;102382.55;;;14.85;71.51
55044;BME280;54902;50.420;18.854;2022-10-17T02:44:07;102399.37;;;14.93;71.50
55044;BME280;54902;50.420;18.854;2022-10-17T02:44:42;102388.36;;;14.93;71.51
55044;BME280;54902;50.420;18.854;2022-10-17T02:45:14;102392.09;;;14.92;71.49
55044;BME280;54902;50.420;18.854;2022-10-17T02:45:46;102397.60;;;14.92;71.50
55044;BME280;54902;50.420;18.854;2022-10-17T02:46:19;102397.60;;;14.92;71.51
55044;BME280;54902;50.420;18.854;2022-10-17T02:47:03;102392.95;;;14.93;71.50
55044;BME280;54902;50.420;18.854;2022-10-17T02:47:40;102389.34;;;14.92;71.49
55044;BME280;54902;50.420;18.854;2022-10-17T02:48:24;102393.98;;;14.92;71.51
55044;BME280;54902;50.420;18.854;2022-10-17T02:49:04;102401.34;;;14.91;71.51
55044;BME280;54902;50.420;18.854;2022-10-17T02:49:40;102394.84;;;14.92;71.52
55044;BME280;54902;50.420;18.854;2022-10-17T02:50:14;102401.34;;;14.91;71.51
55044;BME280;54902;50.420;18.854;2022-10-17T02:52:58;102405.08;;;14.90;71.50
55044;BME280;54902;50.420;18.854;2022-10-17T02:53:42;102413.33;;;14.90;71.50
55044;BME280;54902;50.420;18.854;2022-10-17T02:54:19;102411.61;;;14.89;71.50
55044;BME280;54902;50.420;18.854;2022-10-17T02:55:00;102408.85;;;14.89;71.50
55044;BME280;54902;50.420;18.854;2022-10-17T02:55:38;102408.85;;;14.89;71.48
55044;BME280;54902;50.420;18.854;2022-10-17T02:56:16;102414.36;;;14.89;71.50
55044;BME280;54902;50.420;18.854;2022-10-17T02:57:41;102409.84;;;14.88;71.50
55044;BME280;54902;50.420;18.854;2022-10-17T02:58:23;102410.70;;;14.89;71.50
55044;BME280;54902;50.420;18.854;2022-10-17T02:58:56;102405.20;;;14.89;71.50
55044;BME280;54902;50.420;18.854;2022-10-17T02:59:30;102401.58;;;14.88;71.50
55044;BME280;54902;50.420;18.854;2022-10-17T03:00:05;102407.09;;;14.88;71.50
55044;BME280;54902;50.420;18.854;2022-10-17T03:00:38;102406.10;;;14.89;71.50
55044;BME280;54902;50.420;18.854;2022-10-17T03:01:11;102408.97;;;14.88;71.49
55044;BME280;54902;50.420;18.854;2022-10-17T03:01:43;102404.45;;;14.87;71.55
55044;BME280;54902;50.420;18.854;2022-10-17T03:02:14;102407.09;;;14.88;71.50
55044;BME280;54902;50.420;18.854;2022-10-17T03:02:51;102402.56;;;14.87;71.49
55044;BME280;54902;50.420;18.854;2022-10-17T03:03:25;102402.56;;;14.87;71.51
55044;BME280;54902;50.420;18.854;2022-10-17T03:04:44;102403.55;;;14.86;71.53
55044;BME280;54902;50.420;18.854;2022-10-17T03:05:20;102403.55;;;14.86;71.54
55044;BME280;54902;50.420;18.854;2022-10-17T03:05:52;102407.34;;;14.85;71.52
55044;BME280;54902;50.420;18.854;2022-10-17T03:06:23;102406.30;;;14.86;71.52
55044;BME280;54902;50.420;18.854;2022-10-17T03:06:54;102407.34;;;14.85;71.53
55044;BME280;54902;50.420;18.854;2022-10-17T03:07:25;102409.18;;;14.85;71.50
55044;BME280;54902;50.420;18.854;2022-10-17T03:07:56;102411.07;;;14.84;71.52
55044;BME280;54902;50.420;18.854;2022-10-17T03:08:27;102411.93;;;14.85;71.53
55044;BME280;54902;50.420;18.854;2022-10-17T03:08:58;102405.55;;;14.84;71.53
55044;BME280;54902;50.420;18.854;2022-10-17T03:09:29;102405.55;;;14.84;71.53
55044;BME280;54902;50.420;18.854;2022-10-17T03:10:00;102415.67;;;14.84;71.52
55044;BME280;54902;50.420;18.854;2022-10-17T03:10:31;102410.17;;;14.84;71.52
55044;BME280;54902;50.420;18.854;2022-10-17T03:11:02;102408.44;;;14.83;71.54
55044;BME280;54902;50.420;18.854;2022-10-17T03:11:33;102408.44;;;14.83;71.54
55044;BME280;54902;50.420;18.854;2022-10-17T03:12:04;102407.53;;;14.82;71.56
55044;BME280;54902;50.420;18.854;2022-10-17T03:12:35;102405.80;;;14.81;71.53
55044;BME280;54902;50.420;18.854;2022-10-17T03:13:06;102405.80;;;14.81;71.54
55044;BME280;54902;50.420;18.854;2022-10-17T03:13:37;102410.41;;;14.81;71.58
55044;BME280;54902;50.420;18.854;2022-10-17T03:14:08;102411.30;;;14.81;71.56
55044;BME280;54902;50.420;18.854;2022-10-17T03:14:39;102415.04;;;14.80;71.58
55044;BME280;54902;50.420;18.854;2022-10-17T03:15:11;102404.04;;;14.80;71.61
55044;BME280;54902;50.420;18.854;2022-10-17T03:15:42;102408.64;;;14.80;71.60
55044;BME280;54902;50.420;18.854;2022-10-17T03:16:13;102403.14;;;14.80;71.61
55044;BME280;54902;50.420;18.854;2022-10-17T03:16:44;102405.88;;;14.80;71.61
55044;BME280;54902;50.420;18.854;2022-10-17T03:17:15;102413.28;;;14.79;71.64
55044;BME280;54902;50.420;18.854;2022-10-17T03:17:46;102407.77;;;14.79;71.63
55044;BME280;54902;50.420;18.854;2022-10-17T03:18:17;102406.91;;;14.79;71.63
55044;BME280;54902;50.420;18.854;2022-10-17T03:18:48;102406.01;;;14.78;71.63
55044;BME280;54902;50.420;18.854;2022-10-17T03:19:19;102407.90;;;14.78;71.63
55044;BME280;54902;50.420;18.854;2022-10-17T03:19:49;102403.38;;;14.77;71.62
55044;BME280;54902;50.420;18.854;2022-10-17T03:20:20;102404.27;;;14.77;71.63
55044;BME280;54902;50.420;18.854;2022-10-17T03:20:51;102404.27;;;14.77;71.62
55044;BME280;54902;50.420;18.854;2022-10-17T03:21:22;102404.27;;;14.77;71.62
55044;BME280;54902;50.420;18.854;2022-10-17T03:21:53;102411.63;;;14.77;71.64
55044;BME280;54902;50.420;18.854;2022-10-17T03:22:24;102419.02;;;14.76;71.63
55044;BME280;54902;50.420;18.854;2022-10-17T03:22:55;102407.12;;;14.76;71.62
55044;BME280;54902;50.420;18.854;2022-10-17T03:23:26;102413.52;;;14.76;71.62
55044;BME280;54902;50.420;18.854;2022-10-17T03:23:57;102419.02;;;14.76;71.64
55044;BME280;54902;50.420;18.854;2022-10-17T03:24:28;102418.13;;;14.76;71.64
55044;BME280;54902;50.420;18.854;2022-10-17T03:24:59;102424.54;;;14.76;71.63
55044;BME280;54902;50.420;18.854;2022-10-17T03:25:30;102420.88;;;14.76;71.64
55044;BME280;54902;50.420;18.854;2022-10-17T03:26:07;102422.75;;;14.75;71.63
55044;BME280;54902;50.420;18.854;2022-10-17T03:26:38;102424.54;;;14.76;71.63
55044;BME280;54902;50.420;18.854;2022-10-17T03:27:09;102424.65;;;14.75;71.63
55044;BME280;54902;50.420;18.854;2022-10-17T03:27:40;102409.00;;;14.75;71.63
55044;BME280;54902;50.420;18.854;2022-10-17T03:28:11;102412.63;;;14.76;71.63
55044;BME280;54902;50.420;18.854;2022-10-17T03:28:42;102422.75;;;14.75;71.65
55044;BME280;54902;50.420;18.854;2022-10-17T03:29:13;102416.39;;;14.75;71.63
55044;BME280;54902;50.420;18.854;2022-10-17T03:29:44;102418.13;;;14.76;71.64
55044;BME280;54902;50.420;18.854;2022-10-17T03:30:15;102408.14;;;14.75;71.64
55044;BME280;54902;50.420;18.854;2022-10-17T03:30:45;102423.63;;;14.76;71.66
55044;BME280;54902;50.420;18.854;2022-10-17T03:31:17;102410.88;;;14.75;71.66
55044;BME280;54902;50.420;18.854;2022-10-17T03:31:48;102407.12;;;14.76;71.64
55044;BME280;54902;50.420;18.854;2022-10-17T03:32:19;102409.00;;;14.75;71.63
55044;BME280;54902;50.420;18.854;2022-10-17T03:32:50;102407.12;;;14.76;71.65
55044;BME280;54902;50.420;18.854;2022-10-17T03:33:21;102410.88;;;14.75;71.65
55044;BME280;54902;50.420;18.854;2022-10-17T03:33:51;102416.39;;;14.75;71.65
55044;BME280;54902;50.420;18.854;2022-10-17T03:34:22;102414.50;;;14.75;71.66
55044;BME280;54902;50.420;18.854;2022-10-17T03:34:53;102413.52;;;14.76;71.65